Time;durP1;ratioP1;P1;durP2;ratioP2;P2;SDS_P1;SDS_P2;PMS_P1;PMS_P2;Temp;Humidity;BMP_temperature;BMP_pressure;BME280_temperature;BME280_humidity;BME280_pressure;Samples;Min_cycle;Max_cycle;Signal;HPM_P1;HPM_P2
2021/05/08 00:00:06;;;;;;;6.90;2.78;;;8.80;72.90;;;;;;4952874;28;20027;-75
2021/05/08 00:02:32;;;;;;;3.53;2.13;;;8.70;73.00;;;;;;4968203;28;20532;-75
2021/05/08 00:04:58;;;;;;;3.97;2.10;;;8.70;73.10;;;;;;4952677;28;20085;-74
2021/05/08 00:07:24;;;;;;;8.38;3.72;;;8.60;73.10;;;;;;4953667;28;20067;-75
2021/05/08 00:09:49;;;;;;;6.25;2.45;;;8.60;73.20;;;;;;4951572;28;20054;-75
2021/05/08 00:12:15;;;;;;;7.15;2.65;;;8.60;73.20;;;;;;4953371;28;20062;-75
2021/05/08 00:14:41;;;;;;;5.03;2.65;;;8.60;73.20;;;;;;4953369;28;20058;-74
2021/05/08 00:17:07;;;;;;;7.15;2.88;;;8.60;73.20;;;;;;4953064;28;20455;-75
2021/05/08 00:19:33;;;;;;;5.60;2.53;;;8.50;73.20;;;;;;4953054;28;20024;-74
2021/05/08 00:21:59;;;;;;;4.65;2.33;;;8.50;73.20;;;;;;4952437;28;20080;-75
2021/05/08 00:24:25;;;;;;;6.63;3.30;;;8.50;73.30;;;;;;4953114;28;20075;-75
2021/05/08 00:26:50;;;;;;;6.95;3.15;;;8.50;73.40;;;;;;4951400;29;20376;-74
2021/05/08 00:29:16;;;;;;;4.43;2.20;;;8.40;73.50;;;;;;4968041;28;20376;-75
2021/05/08 00:31:43;;;;;;;4.15;2.83;;;8.40;73.50;;;;;;4951896;29;20606;-74
2021/05/08 00:34:08;;;;;;;5.45;3.22;;;8.40;73.50;;;;;;4954347;28;20424;-74
2021/05/08 00:36:34;;;;;;;7.93;2.83;;;8.40;73.60;;;;;;4955336;29;20118;-74
2021/05/08 00:39:00;;;;;;;5.53;2.97;;;8.30;73.50;;;;;;4956073;28;20038;-74
2021/05/08 00:41:26;;;;;;;6.72;2.78;;;8.30;73.60;;;;;;4956178;28;20046;-75
2021/05/08 00:43:59;;;;;;;3.58;1.75;;;8.30;73.70;;;;;;4955923;28;20464;-75
2021/05/08 00:46:26;;;;;;;4.88;2.00;;;8.30;73.80;;;;;;4956797;28;20039;-74
2021/05/08 00:48:54;;;;;;;4.90;2.40;;;8.30;73.90;;;;;;4955907;28;20034;-74
2021/05/08 00:51:20;;;;;;;4.90;2.55;;;8.30;73.90;;;;;;4956409;28;20075;-74
2021/05/08 00:53:46;;;;;;;5.00;2.65;;;8.20;73.90;;;;;;4956575;28;20031;-74
2021/05/08 00:56:12;;;;;;;4.25;2.13;;;8.20;74.00;;;;;;4954524;29;20020;-75
2021/05/08 00:58:38;;;;;;;3.67;2.28;;;8.20;74.10;;;;;;4954949;28;20027;-74
2021/05/08 01:01:03;;;;;;;5.35;2.42;;;8.20;74.20;;;;;;4955613;28;20023;-75
2021/05/08 01:03:29;;;;;;;5.45;2.35;;;8.10;74.20;;;;;;4954908;29;20027;-74
2021/05/08 01:05:55;;;;;;;5.57;3.40;;;8.10;74.20;;;;;;4970457;28;20121;-75
2021/05/08 01:08:21;;;;;;;6.53;2.55;;;8.10;74.30;;;;;;4956029;28;20030;-74
2021/05/08 01:10:47;;;;;;;4.82;2.08;;;8.10;74.40;;;;;;4970735;28;20067;-75
2021/05/08 01:13:13;;;;;;;4.50;2.30;;;8.00;74.50;;;;;;4953996;28;20476;-74
2021/05/08 01:15:40;;;;;;;4.50;2.20;;;8.00;74.50;;;;;;4970702;28;20019;-75
2021/05/08 01:18:06;;;;;;;3.40;1.90;;;8.00;74.50;;;;;;4953909;29;20027;-75
2021/05/08 01:20:32;;;;;;;5.82;2.80;;;8.00;74.60;;;;;;4956065;28;20086;-74
2021/05/08 01:22:58;;;;;;;2.83;1.92;;;8.00;74.70;;;;;;4954766;28;20492;-75
2021/05/08 01:25:25;;;;;;;5.05;2.35;;;8.00;74.80;;;;;;4955746;28;20030;-75
2021/05/08 01:27:53;;;;;;;4.75;2.63;;;8.00;74.80;;;;;;4955722;28;20023;-75
2021/05/08 01:30:26;;;;;;;4.88;2.45;;;8.00;74.80;;;;;;4955737;28;20118;-74
2021/05/08 01:32:52;;;;;;;5.63;2.35;;;8.00;74.80;;;;;;4955771;28;20070;-75
2021/05/08 01:35:18;;;;;;;3.80;2.22;;;8.00;74.80;;;;;;4955248;28;20026;-75
2021/05/08 01:37:45;;;;;;;7.85;3.22;;;8.00;74.80;;;;;;4955573;28;20150;-75
2021/05/08 01:40:12;;;;;;;5.78;3.00;;;8.00;74.80;;;;;;4969600;28;20177;-74
2021/05/08 01:42:43;;;;;;;8.15;3.17;;;8.00;74.80;;;;;;4955340;28;20035;-75
2021/05/08 01:45:12;;;;;;;6.00;2.80;;;8.00;75.00;;;;;;4968835;28;20380;-75
2021/05/08 01:47:39;;;;;;;5.35;3.20;;;7.90;75.00;;;;;;4955602;28;20267;-75
2021/05/08 01:50:07;;;;;;;8.38;3.13;;;7.90;75.00;;;;;;4954747;28;20082;-75
2021/05/08 01:52:34;;;;;;;6.93;2.95;;;7.90;75.00;;;;;;4955212;28;20131;-75
2021/05/08 01:55:05;;;;;;;8.65;2.70;;;7.90;75.20;;;;;;4954679;28;20483;-74
2021/05/08 01:57:31;;;;;;;;;;;7.90;75.20;;;;;;4955404;28;20357;-74
2021/05/08 01:59:57;;;;;;;5.97;2.85;;;7.80;75.10;;;;;;4954811;28;19912;-76
2021/05/08 02:02:23;;;;;;;7.03;2.75;;;7.80;75.30;;;;;;4954157;28;20369;-75
2021/05/08 02:04:48;;;;;;;4.95;2.58;;;7.80;75.30;;;;;;4970070;28;20029;-75
2021/05/08 02:07:14;;;;;;;5.95;2.92;;;7.80;75.40;;;;;;4954355;28;20101;-75
2021/05/08 02:09:39;;;;;;;5.65;3.10;;;7.80;75.50;;;;;;4953624;28;20415;-74
2021/05/08 02:12:05;;;;;;;7.60;3.10;;;7.80;75.60;;;;;;4969068;28;20027;-75
2021/05/08 02:14:31;;;;;;;5.95;2.83;;;7.70;75.60;;;;;;4954972;28;20116;-74
2021/05/08 02:16:57;;;;;;;5.20;2.55;;;7.70;75.60;;;;;;4953832;28;20062;-75
2021/05/08 02:19:22;;;;;;;6.95;3.33;;;7.70;75.60;;;;;;4955169;28;20117;-75
2021/05/08 02:21:48;;;;;;;7.75;2.97;;;7.70;75.60;;;;;;4954379;28;20086;-74
2021/05/08 02:24:14;;;;;;;6.18;3.40;;;7.70;75.70;;;;;;4954027;28;20345;-74
2021/05/08 02:26:39;;;;;;;6.07;3.03;;;7.70;75.70;;;;;;4953750;28;20024;-75
2021/05/08 02:29:05;;;;;;;6.68;3.08;;;7.70;75.70;;;;;;4953974;28;20030;-73
2021/05/08 02:31:30;;;;;;;7.57;3.05;;;7.70;75.80;;;;;;4969411;28;20027;-74
2021/05/08 02:33:56;;;;;;;7.10;2.85;;;7.70;75.80;;;;;;4954465;28;20050;-75
2021/05/08 02:36:22;;;;;;;7.22;3.15;;;7.70;75.70;;;;;;4953960;28;20034;-75
2021/05/08 02:38:47;;;;;;;6.93;3.03;;;7.80;75.70;;;;;;4953341;28;20061;-74
2021/05/08 02:41:13;;;;;;;7.10;3.45;;;7.80;75.70;;;;;;4953836;28;20497;-75
2021/05/08 02:43:38;;;;;;;6.13;2.85;;;7.80;75.80;;;;;;4954401;28;20032;-75
2021/05/08 02:46:04;;;;;;;6.55;3.28;;;7.80;75.80;;;;;;4952222;28;20027;-74
2021/05/08 02:48:30;;;;;;;7.03;3.13;;;7.80;75.80;;;;;;4953030;28;20114;-75
2021/05/08 02:50:55;;;;;;;7.28;2.92;;;7.80;75.90;;;;;;4954339;28;20349;-75
2021/05/08 02:53:21;;;;;;;7.25;3.05;;;7.90;75.90;;;;;;4953670;28;20032;-75
2021/05/08 02:55:46;;;;;;;7.80;2.95;;;7.80;75.90;;;;;;4953891;28;20055;-74
2021/05/08 02:58:12;;;;;;;4.95;2.75;;;7.90;76.00;;;;;;4953165;28;20110;-74
2021/05/08 03:00:38;;;;;;;6.32;2.85;;;7.90;75.90;;;;;;4968897;28;20069;-75
2021/05/08 03:03:03;;;;;;;8.98;3.05;;;7.90;75.90;;;;;;4953377;28;20035;-74
2021/05/08 03:05:29;;;;;;;7.78;3.45;;;8.00;75.90;;;;;;4954061;28;20127;-74
2021/05/08 03:07:54;;;;;;;8.88;3.47;;;8.00;75.90;;;;;;4953804;28;20023;-74
2021/05/08 03:10:20;;;;;;;7.68;3.40;;;8.00;76.00;;;;;;4953330;28;20452;-75
2021/05/08 03:12:46;;;;;;;6.13;3.05;;;8.00;76.10;;;;;;4954114;28;20028;-74
2021/05/08 03:15:12;;;;;;;7.20;3.20;;;8.00;76.00;;;;;;4952025;28;20027;-75
2021/05/08 03:17:37;;;;;;;7.53;3.40;;;8.00;76.00;;;;;;4953915;28;20023;-74
2021/05/08 03:20:04;;;;;;;5.05;2.67;;;8.00;76.10;;;;;;4953200;28;20031;-75
2021/05/08 03:22:30;;;;;;;5.30;2.75;;;8.00;76.10;;;;;;4953738;28;20094;-75
2021/05/08 03:24:56;;;;;;;7.40;3.97;;;8.10;76.10;;;;;;4953751;28;20027;-74
2021/05/08 03:27:21;;;;;;;6.43;2.90;;;8.10;76.10;;;;;;4953181;28;20313;-75
2021/05/08 03:29:47;;;;;;;7.43;3.30;;;8.10;76.50;;;;;;4953746;28;20024;-74
2021/05/08 03:32:13;;;;;;;9.27;3.72;;;8.00;76.20;;;;;;4953118;28;20031;-75
2021/05/08 03:34:39;;;;;;;9.07;4.65;;;8.10;76.40;;;;;;4953856;28;20039;-75
2021/05/08 03:37:04;;;;;;;6.90;3.40;;;8.00;76.40;;;;;;4951564;28;20174;-74
2021/05/08 03:39:30;;;;;;;9.15;3.88;;;8.00;76.60;;;;;;4953783;28;20079;-75
2021/05/08 03:41:56;;;;;;;6.97;3.55;;;7.90;76.60;;;;;;4953767;28;20102;-75
2021/05/08 03:44:21;;;;;;;6.38;3.35;;;8.00;76.70;;;;;;4953232;28;20102;-74
2021/05/08 03:46:47;;;;;;;6.65;3.20;;;8.00;76.80;;;;;;4953363;28;20110;-75
2021/05/08 03:49:12;;;;;;;8.77;3.83;;;8.00;76.70;;;;;;4953056;28;20037;-75
2021/05/08 03:51:38;;;;;;;6.20;2.97;;;8.00;76.70;;;;;;4953631;28;20035;-74
2021/05/08 03:54:04;;;;;;;10.05;4.18;;;8.00;76.60;;;;;;4951751;29;20050;-74
2021/05/08 03:56:30;;;;;;;9.55;3.75;;;8.00;76.60;;;;;;4952234;28;20140;-74
2021/05/08 03:58:55;;;;;;;6.18;2.97;;;8.00;76.60;;;;;;4953793;29;20476;-75
2021/05/08 04:01:21;;;;;;;10.40;4.38;;;8.00;76.60;;;;;;4952890;28;20023;-74
2021/05/08 04:03:47;;;;;;;9.13;3.47;;;8.00;77.20;;;;;;4953372;28;20380;-75
2021/05/08 04:06:12;;;;;;;8.20;3.97;;;8.00;76.70;;;;;;4967729;28;20055;-74
2021/05/08 04:08:38;;;;;;;8.15;3.80;;;7.90;76.80;;;;;;4954431;28;20522;-75
2021/05/08 04:11:03;;;;;;;10.23;4.35;;;7.90;77.00;;;;;;4956874;28;20031;-75
2021/05/08 04:13:29;;;;;;;11.73;3.78;;;7.90;77.10;;;;;;4955155;29;20062;-75
2021/05/08 04:15:55;;;;;;;7.80;4.13;;;7.90;77.20;;;;;;4956998;28;20055;-74
2021/05/08 04:18:20;;;;;;;8.25;3.90;;;7.80;77.20;;;;;;4956455;28;20031;-75
2021/05/08 04:20:46;;;;;;;9.82;3.70;;;7.80;77.30;;;;;;4971879;28;20440;-75
2021/05/08 04:23:13;;;;;;;8.57;4.22;;;7.80;77.40;;;;;;4956462;28;20106;-75
2021/05/08 04:25:39;;;;;;;8.13;4.18;;;7.80;77.50;;;;;;4956861;28;20111;-75
2021/05/08 04:28:08;;;;;;;11.55;4.57;;;7.80;77.60;;;;;;4956844;28;20027;-74
2021/05/08 04:30:33;;;;;;;10.15;3.88;;;7.80;77.60;;;;;;4956683;28;20019;-75
2021/05/08 04:32:59;;;;;;;11.45;3.85;;;7.80;77.60;;;;;;4956878;28;20027;-74
2021/05/08 04:35:25;;;;;;;9.77;4.53;;;7.80;77.50;;;;;;4955971;28;20034;-74
2021/05/08 04:37:50;;;;;;;10.27;4.10;;;7.80;77.40;;;;;;4957086;28;20372;-75
2021/05/08 04:40:16;;;;;;;9.25;4.10;;;7.90;77.30;;;;;;4956038;28;20492;-75
2021/05/08 04:42:41;;;;;;;9.75;4.47;;;7.90;77.30;;;;;;4956179;28;20071;-74
2021/05/08 04:45:08;;;;;;;9.07;4.82;;;7.90;77.20;;;;;;4956393;28;20483;-75
2021/05/08 04:47:34;;;;;;;11.40;4.30;;;7.90;77.20;;;;;;4954823;28;20038;-74
2021/05/08 04:50:01;;;;;;;9.43;4.65;;;8.00;77.30;;;;;;4956512;28;20032;-75
2021/05/08 04:52:27;;;;;;;14.73;4.50;;;8.00;77.20;;;;;;4954418;28;20388;-75
2021/05/08 04:54:53;;;;;;;10.48;5.18;;;8.10;77.20;;;;;;4956410;28;20023;-74
2021/05/08 04:57:19;;;;;;;10.65;4.72;;;8.10;77.00;;;;;;4954445;28;20476;-75
2021/05/08 04:59:44;;;;;;;12.50;4.70;;;8.20;76.90;;;;;;4956282;28;20023;-74
2021/05/08 05:02:10;;;;;;;7.50;3.97;;;8.20;76.80;;;;;;4955353;28;20026;-73
2021/05/08 05:04:36;;;;;;;9.90;4.72;;;8.30;76.90;;;;;;4956074;28;20082;-74
2021/05/08 05:07:02;;;;;;;8.68;3.97;;;8.30;76.90;;;;;;4955970;28;20361;-74
2021/05/08 05:09:29;;;;;;;11.30;3.83;;;8.40;76.90;;;;;;4955118;28;20032;-75
2021/05/08 05:11:55;;;;;;;10.57;4.57;;;8.40;76.90;;;;;;4954344;29;20115;-75
2021/05/08 05:14:21;;;;;;;9.15;4.40;;;8.40;76.90;;;;;;4955394;28;20055;-74
2021/05/08 05:16:46;;;;;;;8.32;4.45;;;8.40;77.00;;;;;;4956049;28;20502;-75
2021/05/08 05:19:12;;;;;;;8.45;4.32;;;8.40;77.00;;;;;;4955134;28;20127;-75
2021/05/08 05:21:38;;;;;;;12.15;4.25;;;8.50;77.00;;;;;;4954642;28;20031;-74
2021/05/08 05:24:04;;;;;;;8.50;3.92;;;8.50;77.00;;;;;;4955913;28;20475;-74
2021/05/08 05:26:30;;;;;;;9.38;3.92;;;8.60;77.00;;;;;;4955236;28;20027;-74
2021/05/08 05:28:55;;;;;;;10.93;4.72;;;8.60;77.10;;;;;;4954451;28;20023;-74
2021/05/08 05:31:21;;;;;;;7.35;3.90;;;8.50;77.10;;;;;;4953842;28;20077;-75
2021/05/08 05:33:47;;;;;;;7.15;3.80;;;8.60;77.20;;;;;;4955502;28;20058;-74
2021/05/08 05:36:12;;;;;;;10.77;3.95;;;8.60;77.30;;;;;;4954828;28;20027;-74
2021/05/08 05:38:38;;;;;;;6.88;3.60;;;8.60;77.20;;;;;;4955917;28;20082;-75
2021/05/08 05:41:04;;;;;;;14.95;4.80;;;8.70;77.10;;;;;;4955813;28;20055;-75
2021/05/08 05:43:29;;;;;;;10.60;4.93;;;8.70;77.60;;;;;;4954531;28;20035;-75
2021/05/08 05:45:55;;;;;;;8.43;4.47;;;8.80;76.90;;;;;;4955039;28;20127;-75
2021/05/08 05:48:21;;;;;;;9.20;3.92;;;8.80;76.80;;;;;;4954771;28;20026;-75
2021/05/08 05:50:47;;;;;;;6.70;3.92;;;8.80;76.70;;;;;;4955494;28;20110;-74
2021/05/08 05:53:13;;;;;;;10.70;5.00;;;8.90;76.80;;;;;;4953580;28;20176;-75
2021/05/08 05:55:39;;;;;;;9.20;3.55;;;9.00;76.80;;;;;;4970330;28;20476;-74
2021/05/08 05:58:05;;;;;;;10.05;4.45;;;9.00;76.60;;;;;;4953881;28;20051;-73
2021/05/08 06:00:31;;;;;;;8.35;4.22;;;9.10;76.50;;;;;;4954482;28;20051;-75
2021/05/08 06:02:57;;;;;;;9.23;4.10;;;9.20;76.50;;;;;;4969866;28;20035;-75
2021/05/08 06:05:23;;;;;;;7.70;3.60;;;9.20;76.30;;;;;;4954441;28;20023;-74
2021/05/08 06:07:48;;;;;;;7.30;2.92;;;9.20;76.20;;;;;;4954924;28;20027;-75
2021/05/08 06:10:15;;;;;;;5.20;3.03;;;9.30;76.20;;;;;;4969388;28;20019;-74
2021/05/08 06:12:42;;;;;;;8.18;3.20;;;9.40;76.20;;;;;;4954875;28;20031;-74
2021/05/08 06:15:10;;;;;;;7.53;3.47;;;9.40;76.20;;;;;;4954680;28;20412;-74
2021/05/08 06:17:36;;;;;;;7.90;3.55;;;9.40;76.10;;;;;;4954344;28;20031;-74
2021/05/08 06:20:03;;;;;;;6.78;3.58;;;9.50;76.00;;;;;;4954791;28;20019;-74
2021/05/08 06:22:29;;;;;;;7.45;3.45;;;9.60;75.90;;;;;;4953808;28;20404;-74
2021/05/08 06:24:54;;;;;;;5.55;3.13;;;9.70;75.90;;;;;;4954788;28;20027;-74
2021/05/08 06:27:21;;;;;;;8.65;3.63;;;9.70;75.90;;;;;;4954221;28;20099;-75
2021/05/08 06:29:47;;;;;;;9.43;4.60;;;9.80;75.80;;;;;;4954916;28;20020;-75
2021/05/08 06:32:12;;;;;;;8.07;3.60;;;9.80;75.80;;;;;;4969149;28;20019;-75
2021/05/08 06:34:38;;;;;;;5.40;2.53;;;9.80;75.70;;;;;;4954003;28;20488;-74
2021/05/08 06:37:05;;;;;;;8.05;3.75;;;9.90;75.70;;;;;;4954121;28;20101;-75
2021/05/08 06:39:30;;;;;;;9.55;3.53;;;9.90;75.50;;;;;;4953887;28;20027;-75
2021/05/08 06:41:56;;;;;;;4.75;2.92;;;10.00;75.50;;;;;;4954507;28;20038;-74
2021/05/08 06:44:25;;;;;;;6.43;2.88;;;10.10;75.40;;;;;;4952457;28;20090;-74
2021/05/08 06:47:00;;;;;;;5.13;2.83;;;10.10;75.30;;;;;;4954479;28;20019;-75
2021/05/08 06:49:25;;;;;;;7.75;3.70;;;10.20;75.10;;;;;;4953769;28;20464;-74
2021/05/08 06:51:51;;;;;;;6.82;3.00;;;10.30;75.10;;;;;;4954400;28;20075;-75
2021/05/08 06:54:17;;;;;;;6.10;3.30;;;10.30;74.80;;;;;;4969083;28;20061;-75
2021/05/08 06:56:43;;;;;;;5.90;2.47;;;10.40;74.70;;;;;;4953936;28;20441;-74
2021/05/08 06:59:09;;;;;;;7.20;3.72;;;10.50;74.50;;;;;;4952599;28;20035;-74
2021/05/08 07:01:35;;;;;;;4.63;2.60;;;10.50;74.40;;;;;;4968257;28;20024;-74
2021/05/08 07:04:00;;;;;;;7.00;3.40;;;10.60;74.40;;;;;;4954006;28;20107;-74
2021/05/08 07:06:26;;;;;;;6.45;3.63;;;10.60;74.20;;;;;;4953152;28;20027;-74
2021/05/08 07:08:52;;;;;;;13.25;5.68;;;10.60;74.00;;;;;;4954249;28;20416;-75
2021/05/08 07:11:18;;;;;;;8.50;3.90;;;10.60;73.80;;;;;;4953652;28;20464;-75
2021/05/08 07:13:44;;;;;;;6.68;3.47;;;10.70;73.90;;;;;;4954043;28;20038;-74
2021/05/08 07:16:09;;;;;;;7.35;3.03;;;10.70;73.70;;;;;;4953984;28;20031;-75
2021/05/08 07:18:35;;;;;;;11.02;3.63;;;10.70;73.70;;;;;;4953360;28;20023;-75
2021/05/08 07:21:01;;;;;;;7.65;3.15;;;10.80;73.40;;;;;;4953867;28;20510;-74
2021/05/08 07:23:27;;;;;;;4.20;2.50;;;10.80;73.30;;;;;;4953088;28;20086;-73
2021/05/08 07:25:52;;;;;;;5.95;2.83;;;10.90;73.30;;;;;;4954097;28;20472;-75
2021/05/08 07:28:21;;;;;;;7.50;3.63;;;10.90;73.10;;;;;;4953704;28;20031;-75
2021/05/08 07:30:48;;;;;;;6.10;3.15;;;11.00;73.00;;;;;;4953749;28;20126;-74
2021/05/08 07:33:16;;;;;;;6.55;2.63;;;11.00;73.00;;;;;;4953803;28;20039;-75
2021/05/08 07:35:42;;;;;;;7.18;3.35;;;11.10;73.00;;;;;;4951861;29;20487;-75
2021/05/08 07:38:09;;;;;;;5.95;2.63;;;11.20;72.90;;;;;;4953851;28;20026;-74
2021/05/08 07:40:35;;;;;;;6.32;3.10;;;11.20;72.70;;;;;;4952920;28;20031;-75
2021/05/08 07:43:04;;;;;;;6.20;2.85;;;11.30;72.70;;;;;;4953668;28;20035;-75
2021/05/08 07:45:31;;;;;;;6.38;2.50;;;11.30;72.60;;;;;;4957066;28;20030;-75
2021/05/08 07:47:58;;;;;;;5.38;2.83;;;11.40;72.40;;;;;;4957522;28;20019;-74
2021/05/08 07:50:24;;;;;;;5.82;2.53;;;11.50;72.40;;;;;;4956920;28;20038;-73
2021/05/08 07:52:50;;;;;;;5.80;2.50;;;11.60;72.10;;;;;;4957382;28;20066;-75
2021/05/08 07:55:16;;;;;;;3.75;2.13;;;11.70;72.00;;;;;;4957436;28;20439;-75
2021/05/08 07:57:42;;;;;;;5.50;2.83;;;11.70;71.80;;;;;;4956519;28;20312;-74
2021/05/08 08:00:09;;;;;;;6.28;2.75;;;11.70;71.70;;;;;;4955646;28;20360;-76
2021/05/08 08:02:35;;;;;;;5.07;2.42;;;11.80;71.00;;;;;;4954848;29;20035;-74
2021/05/08 08:05:05;;;;;;;6.82;2.70;;;11.80;70.90;;;;;;4957485;29;20071;-74
2021/05/08 08:07:31;;;;;;;7.90;3.03;;;11.90;71.00;;;;;;4956328;28;20388;-74
2021/05/08 08:09:57;;;;;;;5.72;2.95;;;11.90;70.90;;;;;;4955813;29;20020;-75
2021/05/08 08:12:23;;;;;;;6.43;2.42;;;11.90;70.80;;;;;;4956779;28;20495;-74
2021/05/08 08:14:49;;;;;;;4.95;2.20;;;12.00;71.00;;;;;;4957401;28;20031;-74
2021/05/08 08:17:15;;;;;;;4.15;2.20;;;12.00;70.70;;;;;;4956620;28;20027;-74
2021/05/08 08:19:44;;;;;;;4.13;2.35;;;12.10;70.60;;;;;;4956144;29;20065;-75
2021/05/08 08:22:09;;;;;;;5.70;2.40;;;12.10;70.20;;;;;;4956557;28;20066;-75
2021/05/08 08:24:35;;;;;;;6.55;3.10;;;12.20;70.00;;;;;;4956362;29;20396;-74
2021/05/08 08:27:00;;;;;;;4.95;2.40;;;12.20;69.70;;;;;;4956691;29;20026;-73
2021/05/08 08:29:28;;;;;;;5.15;2.28;;;12.20;69.10;;;;;;4956422;28;20106;-74
2021/05/08 08:31:54;;;;;;;5.10;2.47;;;12.20;69.30;;;;;;4956641;28;20399;-74
2021/05/08 08:34:20;;;;;;;9.52;2.92;;;12.20;68.80;;;;;;4956401;28;20031;-73
2021/05/08 08:36:45;;;;;;;5.05;2.28;;;12.30;68.80;;;;;;4955995;28;20035;-75
2021/05/08 08:39:11;;;;;;;5.25;2.47;;;12.30;68.70;;;;;;4956627;28;20030;-75
2021/05/08 08:41:37;;;;;;;5.70;2.38;;;12.30;68.70;;;;;;4955879;29;20098;-74
2021/05/08 08:44:09;;;;;;;3.15;2.22;;;12.40;68.40;;;;;;4956514;28;20045;-74
2021/05/08 08:46:41;;;;;;;5.80;2.53;;;12.40;68.40;;;;;;4955667;28;20071;-74
2021/05/08 08:49:08;;;;;;;5.97;2.85;;;12.40;68.10;;;;;;4956608;28;20034;-75
2021/05/08 08:51:34;;;;;;;5.18;2.75;;;12.50;68.00;;;;;;4955724;28;20082;-75
2021/05/08 08:54:00;;;;;;;4.68;2.13;;;12.60;67.90;;;;;;4956117;28;20032;-74
2021/05/08 08:56:38;;;;;;;3.85;2.55;;;12.60;67.70;;;;;;4956400;29;20380;-74
2021/05/08 08:59:18;;;;;;;5.50;2.38;;;12.70;67.50;;;;;;4956503;28;20038;-75
2021/05/08 09:01:46;;;;;;;5.53;2.47;;;12.70;67.20;;;;;;4955853;28;20027;-76
2021/05/08 09:04:15;;;;;;;7.97;2.80;;;12.80;66.90;;;;;;4956291;28;20118;-75
2021/05/08 09:06:44;;;;;;;10.80;3.00;;;12.90;66.90;;;;;;4955522;28;20107;-75
2021/05/08 09:09:10;;;;;;;7.95;3.10;;;12.90;66.80;;;;;;4956268;28;20115;-75
2021/05/08 09:11:55;;;;;;;6.18;2.75;;;13.00;66.60;;;;;;4955611;28;20024;-75
2021/05/08 09:14:32;;;;;;;4.30;2.35;;;13.10;66.50;;;;;;4956280;28;20027;-76
2021/05/08 09:17:08;;;;;;;5.43;2.83;;;13.10;65.90;;;;;;4956139;28;20054;-75
2021/05/08 09:19:45;;;;;;;3.50;2.20;;;13.20;65.60;;;;;;4955185;28;20034;-76
2021/05/08 09:22:41;;;;;;;4.45;2.58;;;13.30;65.20;;;;;;4955921;28;20063;-76
2021/05/08 09:25:14;;;;;;;5.63;2.17;;;13.40;65.10;;;;;;4947064;28;20043;-75
2021/05/08 09:27:57;;;;;;;4.43;2.67;;;13.40;64.80;;;;;;4955281;28;20022;-75
2021/05/08 09:30:30;;;;;;;5.32;2.97;;;13.50;64.40;;;;;;4955871;28;20023;-74
2021/05/08 09:32:56;;;;;;;6.30;2.38;;;13.60;64.10;;;;;;4955630;28;20490;-74
2021/05/08 09:35:42;;;;;;;5.20;2.65;;;13.60;63.90;;;;;;4954413;29;20028;-74
2021/05/08 09:38:11;;;;;;;5.00;2.10;;;13.70;63.70;;;;;;4955224;28;20031;-75
2021/05/08 09:40:39;;;;;;;5.72;2.00;;;13.70;63.90;;;;;;4955156;28;20027;-75
2021/05/08 09:43:12;;;;;;;5.28;2.72;;;13.80;63.40;;;;;;4955003;28;20459;-74
2021/05/08 09:45:44;;;;;;;6.50;2.10;;;13.90;63.30;;;;;;4954818;28;20073;-74
2021/05/08 09:48:31;;;;;;;3.00;1.77;;;13.90;62.80;;;;;;4955269;28;20043;-75
2021/05/08 09:51:14;;;;;;;3.85;1.83;;;13.90;62.80;;;;;;4953997;29;20020;-75
2021/05/08 09:53:39;;;;;;;3.88;1.98;;;13.90;62.90;;;;;;4953256;29;20035;-74
2021/05/08 09:56:05;;;;;;;8.85;2.10;;;13.90;62.90;;;;;;4955152;28;20522;-74
2021/05/08 09:58:32;;;;;;;4.20;1.65;;;13.90;63.00;;;;;;4969575;28;20532;-75
2021/05/08 10:00:57;;;;;;;3.65;2.15;;;14.00;62.80;;;;;;4986195;28;20070;-74
2021/05/08 10:03:23;;;;;;;4.63;1.98;;;14.10;62.40;;;;;;4955077;29;20492;-75
2021/05/08 10:06:01;;;;;;;4.20;1.85;;;14.20;62.10;;;;;;4953928;28;20452;-74
2021/05/08 10:08:26;;;;;;;3.97;1.80;;;14.30;61.90;;;;;;4953946;28;20027;-74
2021/05/08 10:10:52;;;;;;;3.72;1.60;;;14.20;61.30;;;;;;4969227;28;20114;-75
2021/05/08 10:13:19;;;;;;;7.22;2.72;;;14.20;60.70;;;;;;4955235;28;20023;-75
2021/05/08 10:15:45;;;;;;;2.65;1.48;;;14.30;60.90;;;;;;4954421;28;20027;-74
2021/05/08 10:18:12;;;;;;;3.67;2.22;;;14.30;61.00;;;;;;4954613;28;20038;-75
2021/05/08 10:20:39;;;;;;;2.65;1.50;;;14.40;61.60;;;;;;4954198;28;20447;-74
2021/05/08 10:23:10;;;;;;;4.03;1.67;;;14.40;60.90;;;;;;4954558;28;20058;-75
2021/05/08 10:25:43;;;;;;;6.20;1.92;;;14.50;60.90;;;;;;4985205;28;20079;-74
2021/05/08 10:28:09;;;;;;;4.03;1.55;;;14.60;61.00;;;;;;4954777;28;20110;-75
2021/05/08 10:30:40;;;;;;;2.33;1.02;;;14.60;61.00;;;;;;4953992;28;20102;-74
2021/05/08 10:33:07;;;;;;;1.73;1.10;;;14.60;60.60;;;;;;4954378;28;20111;-75
2021/05/08 10:35:45;;;;;;;2.42;1.63;;;14.50;59.60;;;;;;4953180;29;20031;-74
2021/05/08 10:38:30;;;;;;;3.22;1.40;;;14.40;59.40;;;;;;4953496;29;20449;-74
2021/05/08 10:40:58;;;;;;;2.45;1.23;;;14.40;59.70;;;;;;4953717;28;20019;-75
2021/05/08 10:43:41;;;;;;;2.25;1.63;;;14.40;59.80;;;;;;4954242;28;20106;-75
2021/05/08 10:46:08;;;;;;;2.20;1.65;;;14.50;59.50;;;;;;4985146;28;20480;-75
2021/05/08 10:48:35;;;;;;;2.70;1.08;;;14.60;59.50;;;;;;4954432;28;20091;-75
2021/05/08 10:51:00;;;;;;;7.00;2.20;;;14.60;59.70;;;;;;4952902;29;20106;-75
2021/05/08 10:53:52;;;;;;;3.33;1.70;;;14.70;59.70;;;;;;4954127;28;20580;-76
2021/05/08 10:56:34;;;;;;;1.33;1.08;;;14.80;59.00;;;;;;4949690;29;20039;-74
2021/05/08 10:59:09;;;;;;;2.83;1.08;;;14.80;58.50;;;;;;4953541;28;20031;-75
2021/05/08 11:01:43;;;;;;;3.30;1.00;;;14.80;58.60;;;;;;4954100;29;20023;-73
2021/05/08 11:04:09;;;;;;;2.35;1.30;;;14.80;59.00;;;;;;4953868;28;20115;-74
2021/05/08 11:06:35;;;;;;;2.90;1.48;;;14.70;59.50;;;;;;4954051;28;20031;-74
2021/05/08 11:09:02;;;;;;;3.58;1.30;;;14.70;59.60;;;;;;4952327;29;20378;-74
2021/05/08 11:11:48;;;;;;;3.15;1.70;;;14.60;60.10;;;;;;4953889;28;20050;-75
2021/05/08 11:14:14;;;;;;;3.85;1.45;;;14.50;60.50;;;;;;4984786;28;20039;-74
2021/05/08 11:16:54;;;;;;;2.13;1.13;;;14.40;60.40;;;;;;4953266;28;20113;-75
2021/05/08 11:19:25;;;;;;;2.92;1.20;;;14.40;60.70;;;;;;4953990;28;20020;-74
2021/05/08 11:22:05;;;;;;;1.92;1.15;;;14.30;61.40;;;;;;4984635;28;20441;-75
2021/05/08 11:24:39;;;;;;;2.15;1.00;;;14.30;62.00;;;;;;4984469;28;20082;-74
2021/05/08 11:27:21;;;;;;;2.35;1.38;;;14.30;62.10;;;;;;4953839;28;20035;-74
2021/05/08 11:29:46;;;;;;;2.17;1.30;;;14.30;62.20;;;;;;4984239;28;20027;-75
2021/05/08 11:32:12;;;;;;;3.80;1.40;;;14.20;62.70;;;;;;4954089;29;20082;-75
2021/05/08 11:34:43;;;;;;;2.15;1.10;;;14.20;63.20;;;;;;4953557;28;20031;-75
2021/05/08 11:37:13;;;;;;;1.95;1.58;;;14.20;63.80;;;;;;4953737;28;20019;-74
2021/05/08 11:39:44;;;;;;;3.58;2.00;;;14.20;64.90;;;;;;4953312;28;20016;-75
2021/05/08 11:42:10;;;;;;;3.97;1.63;;;14.10;64.90;;;;;;4968309;28;20371;-75
2021/05/08 11:44:37;;;;;;;3.60;1.52;;;14.10;65.20;;;;;;4953694;28;20460;-75
2021/05/08 11:47:04;;;;;;;4.10;1.55;;;14.00;65.70;;;;;;4953263;28;20032;-75
2021/05/08 11:49:30;;;;;;;2.03;1.50;;;13.90;66.10;;;;;;4953587;28;20082;-75
2021/05/08 11:51:57;;;;;;;3.05;1.13;;;13.90;66.60;;;;;;4951764;28;20031;-75
2021/05/08 11:54:25;;;;;;;2.42;1.30;;;13.80;67.00;;;;;;4953690;28;20055;-75
2021/05/08 11:56:51;;;;;;;2.35;1.20;;;13.80;68.20;;;;;;4953129;28;20487;-74
2021/05/08 11:59:32;;;;;;;1.17;1.08;;;13.70;68.80;;;;;;4968787;28;20027;-74
2021/05/08 12:02:10;;;;;;;;;;;13.70;70.40;;;;;;4953399;28;20034;-74
2021/05/08 12:04:49;;;;;;;1.98;1.30;;;13.50;70.90;;;;;;4953301;28;19914;-74
2021/05/08 12:07:23;;;;;;;4.82;1.75;;;13.50;71.60;;;;;;4953483;29;20106;-74
2021/05/08 12:09:50;;;;;;;3.42;2.00;;;13.40;72.60;;;;;;4983966;28;20039;-74
2021/05/08 12:12:16;;;;;;;1.95;1.15;;;13.20;73.30;;;;;;4953387;28;20027;-74
2021/05/08 12:14:46;;;;;;;3.75;1.52;;;13.10;73.80;;;;;;4952892;28;20368;-75
2021/05/08 12:17:12;;;;;;;6.03;2.43;;;13.00;74.50;;;;;;4953699;28;20015;-74
2021/05/08 12:19:41;;;;;;;3.65;2.03;;;12.90;75.10;;;;;;4953378;28;20126;-74
2021/05/08 12:22:09;;;;;;;4.22;1.70;;;12.80;76.80;;;;;;4953628;28;20019;-74
2021/05/08 12:24:34;;;;;;;2.40;2.00;;;12.60;77.30;;;;;;4953504;28;20134;-74
2021/05/08 12:27:00;;;;;;;4.25;1.90;;;12.60;78.30;;;;;;4952763;28;20110;-74
2021/05/08 12:29:26;;;;;;;5.55;1.70;;;12.50;79.00;;;;;;4953891;28;20103;-73
2021/05/08 12:31:52;;;;;;;3.60;2.10;;;12.40;79.70;;;;;;4956109;29;20023;-75
2021/05/08 12:34:21;;;;;;;3.92;1.73;;;12.40;80.30;;;;;;4956750;29;20082;-74
2021/05/08 12:37:03;;;;;;;7.50;2.17;;;12.30;81.10;;;;;;4956209;28;20106;-75
2021/05/08 12:39:30;;;;;;;4.45;1.80;;;12.30;81.60;;;;;;4957250;28;20019;-72
2021/05/08 12:41:56;;;;;;;3.20;1.90;;;12.20;81.60;;;;;;4956154;28;20054;-74
2021/05/08 12:44:37;;;;;;;5.80;2.63;;;12.20;82.00;;;;;;4956764;28;20074;-75
2021/05/08 12:47:19;;;;;;;3.42;2.08;;;12.20;82.30;;;;;;4956264;28;20058;-73
2021/05/08 12:50:04;;;;;;;3.20;1.73;;;12.20;82.90;;;;;;4956201;28;20031;-74
2021/05/08 12:52:30;;;;;;;4.75;1.92;;;12.20;82.90;;;;;;4956702;28;20057;-73
2021/05/08 12:54:56;;;;;;;2.92;1.80;;;12.20;82.80;;;;;;4967616;28;20066;-79